Time;durP1;ratioP1;P1;durP2;ratioP2;P2;SDS_P1;SDS_P2;PMS_P1;PMS_P2;Temp;Humidity;BMP_temperature;BMP_pressure;BME280_temperature;BME280_humidity;BME280_pressure;Samples;Min_cycle;Max_cycle;Signal;HPM_P1;HPM_P2
2022/02/23 00:00:51;;;;;;;1.38;0.90;;;22.80;50.10;;;;;;4990448;28;20276;-55
2022/02/23 00:03:22;;;;;;;1.85;0.95;;;22.80;50.20;;;;;;4990783;28;20653;-45
2022/02/23 00:05:52;;;;;;;2.15;1.00;;;22.80;50.20;;;;;;4989822;28;20271;-45
2022/02/23 00:08:23;;;;;;;1.83;1.00;;;22.80;50.10;;;;;;4989911;28;20209;-47
2022/02/23 00:10:53;;;;;;;1.45;0.90;;;22.90;50.10;;;;;;4989171;28;20277;-44
2022/02/23 00:13:24;;;;;;;3.05;1.15;;;22.90;50.10;;;;;;4988603;28;20197;-44
2022/02/23 00:15:56;;;;;;;2.65;0.90;;;22.90;50.10;;;;;;4988998;28;20240;-43
2022/02/23 00:18:27;;;;;;;2.00;0.98;;;22.90;50.10;;;;;;4989771;28;20209;-49
2022/02/23 00:20:57;;;;;;;1.33;0.82;;;22.90;50.00;;;;;;4989264;28;20230;-45
2022/02/23 00:23:28;;;;;;;2.05;0.80;;;22.90;50.00;;;;;;4989898;28;20618;-48
2022/02/23 00:26:00;;;;;;;2.42;0.90;;;23.00;50.10;;;;;;4989325;28;20283;-49
2022/02/23 00:28:31;;;;;;;2.53;0.80;;;23.00;50.00;;;;;;4988860;28;20201;-50
2022/02/23 00:31:03;;;;;;;2.75;0.95;;;23.00;50.00;;;;;;4989535;28;20217;-51
2022/02/23 00:33:34;;;;;;;1.70;0.70;;;23.00;50.00;;;;;;4989445;28;20240;-45
2022/02/23 00:36:05;;;;;;;2.42;1.05;;;23.00;49.90;;;;;;4989079;28;20292;-53
2022/02/23 00:38:35;;;;;;;2.47;0.88;;;23.00;49.90;;;;;;4989556;28;20210;-56
2022/02/23 00:41:06;;;;;;;2.20;0.90;;;23.00;49.90;;;;;;4987224;28;20217;-47
2022/02/23 00:43:36;;;;;;;2.53;1.02;;;23.10;49.90;;;;;;4989786;28;20194;-46
2022/02/23 00:46:09;;;;;;;1.15;0.85;;;23.10;49.90;;;;;;4989221;28;20736;-51
2022/02/23 00:48:39;;;;;;;1.65;0.80;;;23.10;49.90;;;;;;4988638;28;20185;-46
2022/02/23 00:51:10;;;;;;;2.40;1.00;;;23.20;49.80;;;;;;4988325;28;20272;-44
2022/02/23 00:53:41;;;;;;;3.65;1.30;;;23.20;49.80;;;;;;4988663;28;20244;-47
2022/02/23 00:56:11;;;;;;;1.92;0.82;;;23.20;50.40;;;;;;4988792;28;20626;-55
2022/02/23 00:58:42;;;;;;;2.75;1.10;;;23.20;49.80;;;;;;4987694;28;20260;-59
2022/02/23 01:01:14;;;;;;;1.60;0.93;;;23.30;49.80;;;;;;4988190;28;20213;-45
2022/02/23 01:03:45;;;;;;;2.08;0.93;;;23.30;49.80;;;;;;4988151;28;20205;-44
2022/02/23 01:06:16;;;;;;;2.63;0.90;;;23.30;49.80;;;;;;4988054;28;20193;-50
2022/02/23 01:08:46;;;;;;;1.42;0.77;;;23.30;49.70;;;;;;4988472;28;20236;-48
2022/02/23 01:11:19;;;;;;;3.28;1.10;;;23.30;49.70;;;;;;4989225;28;20709;-43
2022/02/23 01:13:50;;;;;;;2.30;1.10;;;23.30;50.30;;;;;;4989319;28;20276;-45
2022/02/23 01:16:23;;;;;;;2.20;1.08;;;23.40;49.70;;;;;;4987845;28;20229;-53
2022/02/23 01:18:54;;;;;;;2.78;1.15;;;23.40;49.70;;;;;;4988619;28;20205;-44
2022/02/23 01:21:24;;;;;;;3.63;1.10;;;23.40;49.60;;;;;;4988326;28;20272;-47
2022/02/23 01:23:55;;;;;;;2.00;1.00;;;23.40;49.70;;;;;;4988380;28;20251;-44
2022/02/23 01:26:25;;;;;;;2.17;1.30;;;23.40;49.60;;;;;;4989729;28;20194;-45
2022/02/23 01:28:56;;;;;;;2.13;0.88;;;23.40;49.60;;;;;;4988678;28;20655;-44
2022/02/23 01:31:29;;;;;;;2.28;1.27;;;23.40;49.60;;;;;;4989611;28;20213;-44
2022/02/23 01:34:00;;;;;;;2.67;1.17;;;23.50;49.60;;;;;;4988570;28;20217;-46
2022/02/23 01:36:31;;;;;;;2.78;1.13;;;23.50;49.70;;;;;;4988903;28;20230;-44
2022/02/23 01:39:01;;;;;;;2.70;1.27;;;23.50;49.60;;;;;;4987662;28;20198;-44
2022/02/23 01:41:32;;;;;;;1.50;0.90;;;23.50;49.60;;;;;;4986934;28;20214;-45
2022/02/23 01:44:03;;;;;;;2.53;1.15;;;23.60;49.50;;;;;;4988744;28;20246;-45
2022/02/23 01:46:35;;;;;;;1.88;1.00;;;23.60;49.50;;;;;;4986506;28;20696;-52
2022/02/23 01:49:06;;;;;;;2.72;1.20;;;23.60;49.50;;;;;;4988942;28;20252;-51
2022/02/23 01:51:36;;;;;;;2.92;1.27;;;23.70;49.60;;;;;;4987623;28;20272;-45
2022/02/23 01:54:07;;;;;;;3.25;1.30;;;23.70;49.90;;;;;;4988812;28;20193;-44
2022/02/23 01:56:38;;;;;;;1.83;1.00;;;23.70;50.00;;;;;;4987802;28;20283;-48
2022/02/23 01:59:09;;;;;;;3.75;1.30;;;23.70;50.00;;;;;;4987358;28;20202;-44
2022/02/23 02:01:42;;;;;;;2.05;1.00;;;23.80;50.10;;;;;;4987953;28;20209;-47
2022/02/23 02:04:12;;;;;;;2.45;1.40;;;23.80;50.00;;;;;;4987917;28;20193;-45
2022/02/23 02:06:43;;;;;;;2.38;1.05;;;23.80;49.90;;;;;;4988336;28;20197;-45
2022/02/23 02:09:13;;;;;;;1.88;1.00;;;23.80;49.80;;;;;;4987951;28;20994;-49
2022/02/23 02:11:45;;;;;;;2.42;0.88;;;23.80;49.80;;;;;;4988236;28;20554;-54
2022/02/23 02:14:15;;;;;;;2.97;1.15;;;23.90;49.80;;;;;;4985762;28;20248;-57
2022/02/23 02:16:48;;;;;;;2.63;1.30;;;23.90;49.70;;;;;;4987725;28;20701;-49
2022/02/23 02:19:19;;;;;;;1.95;0.88;;;23.90;49.70;;;;;;4988094;28;20189;-45
2022/02/23 02:21:58;;;;;;;3.00;1.27;;;23.90;49.60;;;;;;4989910;28;20314;-59
2022/02/23 02:24:30;;;;;;;2.92;1.33;;;24.00;49.60;;;;;;4992194;28;20252;-50
2022/02/23 02:27:02;;;;;;;3.83;1.30;;;24.00;49.50;;;;;;4992063;28;20194;-48
2022/02/23 02:29:33;;;;;;;2.33;0.90;;;24.00;49.40;;;;;;4991903;28;20201;-44
2022/02/23 02:32:04;;;;;;;3.33;1.20;;;24.00;49.40;;;;;;4991193;28;20288;-48
2022/02/23 02:34:35;;;;;;;2.67;1.08;;;24.10;49.40;;;;;;4990014;28;20194;-50
2022/02/23 02:37:09;;;;;;;2.47;0.82;;;24.10;49.30;;;;;;4991242;28;20280;-50
2022/02/23 02:39:40;;;;;;;2.63;1.40;;;24.10;49.20;;;;;;4991476;28;20251;-51
2022/02/23 02:42:12;;;;;;;3.72;1.33;;;24.10;49.10;;;;;;4991698;28;20202;-44
2022/02/23 02:44:42;;;;;;;2.97;1.10;;;24.10;49.00;;;;;;4992110;28;20252;-50
2022/02/23 02:47:13;;;;;;;3.15;1.10;;;24.10;49.00;;;;;;4991069;28;20642;-44
2022/02/23 02:49:44;;;;;;;2.65;1.17;;;24.20;49.00;;;;;;4991737;28;20243;-46
2022/02/23 02:52:16;;;;;;;2.53;1.13;;;24.20;49.00;;;;;;4991609;28;20193;-59
2022/02/23 02:54:47;;;;;;;2.63;1.27;;;24.20;48.90;;;;;;4992014;28;20653;-45
2022/02/23 02:57:18;;;;;;;4.47;1.30;;;24.20;48.90;;;;;;4990915;28;20236;-60
2022/02/23 02:59:48;;;;;;;3.15;1.25;;;24.20;48.90;;;;;;4991246;28;20252;-44
2022/02/23 03:02:19;;;;;;;3.20;1.30;;;24.20;48.80;;;;;;4990820;28;20957;-53
2022/02/23 03:04:49;;;;;;;3.83;1.35;;;24.20;48.90;;;;;;4991254;28;20292;-54
2022/02/23 03:07:22;;;;;;;3.42;1.40;;;24.20;48.90;;;;;;4990351;28;20193;-58
2022/02/23 03:09:53;;;;;;;2.90;1.25;;;24.20;48.90;;;;;;4990468;28;20248;-47
2022/02/23 03:12:23;;;;;;;3.38;1.27;;;24.20;48.80;;;;;;5005399;23;20233;-54
2022/02/23 03:14:54;;;;;;;2.63;1.13;;;24.20;48.80;;;;;;5010170;28;20247;-58
2022/02/23 03:17:25;;;;;;;2.63;1.40;;;24.30;48.80;;;;;;5009818;28;20228;-61
2022/02/23 03:19:56;;;;;;;3.30;1.20;;;24.30;48.80;;;;;;5009021;28;21575;-50
2022/02/23 03:22:28;;;;;;;3.58;1.50;;;24.30;48.80;;;;;;5010199;28;20204;-58
2022/02/23 03:24:59;;;;;;;5.75;1.63;;;24.30;48.90;;;;;;5009786;28;20200;-54
2022/02/23 03:27:30;;;;;;;4.38;1.70;;;24.30;48.90;;;;;;5009807;28;20193;-55
2022/02/23 03:30:00;;;;;;;3.22;1.40;;;24.30;48.90;;;;;;5010010;28;20290;-57
2022/02/23 03:32:31;;;;;;;4.78;1.40;;;24.30;48.90;;;;;;5008941;28;20259;-56
2022/02/23 03:35:02;;;;;;;3.10;1.40;;;24.30;48.80;;;;;;5009314;28;20630;-52
2022/02/23 03:37:34;;;;;;;4.78;1.55;;;24.30;48.80;;;;;;5009975;28;20229;-52
2022/02/23 03:40:08;;;;;;;4.63;1.60;;;24.40;48.90;;;;;;5009511;28;20221;-59
2022/02/23 03:42:39;;;;;;;3.30;1.20;;;24.30;48.80;;;;;;5009947;28;20266;-52
2022/02/23 03:45:10;;;;;;;2.40;1.38;;;24.40;48.70;;;;;;5008935;28;20248;-50
2022/02/23 03:47:41;;;;;;;3.30;1.63;;;24.40;48.70;;;;;;5009516;28;20259;-61
2022/02/23 03:50:12;;;;;;;4.55;1.55;;;24.40;48.60;;;;;;5007276;28;20881;-58
2022/02/23 03:52:45;;;;;;;2.13;1.25;;;24.40;48.50;;;;;;5009620;28;20203;-60
2022/02/23 03:55:16;;;;;;;2.08;1.13;;;24.40;48.50;;;;;;5009374;28;20197;-59
2022/02/23 03:57:46;;;;;;;4.13;1.70;;;24.40;48.50;;;;;;5008993;28;20220;-54
2022/02/23 04:00:18;;;;;;;2.65;1.17;;;24.40;48.50;;;;;;5009309;28;20217;-60
2022/02/23 04:02:49;;;;;;;2.53;1.38;;;24.40;48.40;;;;;;5009431;28;20193;-62
2022/02/23 04:05:19;;;;;;;3.42;1.30;;;24.40;48.50;;;;;;5008133;28;20244;-60
2022/02/23 04:07:52;;;;;;;4.05;1.52;;;24.40;48.40;;;;;;5009419;28;20196;-50
2022/02/23 04:10:23;;;;;;;4.68;1.50;;;24.40;48.30;;;;;;5008346;28;20223;-61
2022/02/23 04:12:54;;;;;;;3.42;1.70;;;24.40;48.40;;;;;;5010247;28;20236;-58
2022/02/23 04:15:24;;;;;;;2.33;1.30;;;24.40;48.40;;;;;;5008534;28;20722;-61
2022/02/23 04:17:55;;;;;;;3.83;1.42;;;24.40;48.40;;;;;;5007239;28;20657;-52
2022/02/23 04:20:26;;;;;;;3.55;1.50;;;24.50;48.60;;;;;;5005388;28;20343;-61
2022/02/23 04:22:58;;;;;;;4.93;1.65;;;24.40;48.50;;;;;;5009298;28;20258;-60
2022/02/23 04:25:29;;;;;;;3.33;1.48;;;24.40;48.40;;;;;;5008779;28;20605;-61
2022/02/23 04:27:59;;;;;;;3.72;1.67;;;24.40;48.30;;;;;;5008971;28;20193;-61
2022/02/23 04:30:30;;;;;;;4.57;1.48;;;24.50;48.40;;;;;;5008900;28;20286;-62
2022/02/23 04:33:01;;;;;;;5.32;1.80;;;24.50;48.30;;;;;;5009057;28;20197;-61
2022/02/23 04:35:31;;;;;;;5.03;1.80;;;24.50;48.20;;;;;;5008786;28;20205;-60
2022/02/23 04:38:04;;;;;;;3.63;1.60;;;24.40;48.10;;;;;;5007983;28;20279;-48
2022/02/23 04:40:34;;;;;;;5.55;1.80;;;24.40;48.00;;;;;;5007410;28;20220;-62
2022/02/23 04:43:05;;;;;;;4.80;1.67;;;24.50;48.00;;;;;;5007094;28;20255;-60
2022/02/23 04:45:36;;;;;;;5.10;2.20;;;24.50;48.00;;;;;;5006103;28;20205;-53
2022/02/23 04:48:09;;;;;;;4.03;1.70;;;24.40;47.90;;;;;;5007478;28;20204;-62
2022/02/23 04:50:39;;;;;;;5.65;2.00;;;24.50;47.80;;;;;;5007707;28;20275;-58
2022/02/23 04:53:12;;;;;;;4.95;1.52;;;24.50;47.90;;;;;;5009006;28;21028;-60
2022/02/23 04:55:43;;;;;;;4.13;1.60;;;24.50;47.90;;;;;;5008381;28;20296;-60
2022/02/23 04:58:13;;;;;;;4.32;1.90;;;24.50;47.90;;;;;;5008677;28;20220;-58
2022/02/23 05:00:44;;;;;;;3.55;1.55;;;24.40;47.90;;;;;;5009113;28;21494;-57
2022/02/23 05:03:15;;;;;;;4.80;1.60;;;24.50;47.90;;;;;;5008041;28;20282;-52
2022/02/23 05:05:45;;;;;;;5.03;2.08;;;24.50;48.00;;;;;;5008295;28;20240;-60
2022/02/23 05:08:18;;;;;;;5.95;1.80;;;24.50;48.10;;;;;;5008349;28;20598;-57
2022/02/23 05:10:49;;;;;;;4.45;1.58;;;24.50;48.10;;;;;;5008509;28;20264;-57
2022/02/23 05:13:21;;;;;;;5.53;1.85;;;24.50;48.10;;;;;;5019404;23;20812;-46
2022/02/23 05:15:52;;;;;;;3.15;1.60;;;24.50;48.10;;;;;;5008833;28;20232;-65
2022/02/23 05:18:22;;;;;;;11.52;2.67;;;24.50;48.10;;;;;;5008224;28;20237;-51
2022/02/23 05:20:53;;;;;;;10.98;3.20;;;24.50;48.00;;;;;;5008296;28;20220;-62
2022/02/23 05:23:26;;;;;;;10.70;3.25;;;24.50;47.70;;;;;;5008315;28;20251;-60
2022/02/23 05:25:57;;;;;;;10.48;2.60;;;24.40;47.70;;;;;;5008264;28;20197;-60
2022/02/23 05:28:28;;;;;;;7.60;2.42;;;24.30;47.80;;;;;;5007702;28;20196;-60
2022/02/23 05:30:59;;;;;;;13.10;3.13;;;24.30;47.80;;;;;;5008329;28;20271;-52
2022/02/23 05:33:29;;;;;;;11.40;2.95;;;24.30;47.90;;;;;;5008888;28;20680;-59
2022/02/23 05:36:01;;;;;;;9.27;2.55;;;24.30;48.00;;;;;;5008477;28;20196;-60
2022/02/23 05:38:33;;;;;;;9.60;2.75;;;24.30;48.10;;;;;;5009245;28;20227;-55
2022/02/23 05:41:05;;;;;;;9.23;2.58;;;24.30;48.10;;;;;;5008518;28;20212;-58
2022/02/23 05:43:35;;;;;;;9.05;3.00;;;24.30;48.20;;;;;;5008076;28;20224;-56
2022/02/23 05:46:06;;;;;;;7.22;2.38;;;24.40;48.30;;;;;;5007413;28;20223;-50
2022/02/23 05:48:37;;;;;;;8.23;2.47;;;24.30;48.20;;;;;;5006983;28;20248;-51
2022/02/23 05:51:07;;;;;;;6.78;2.42;;;24.40;48.30;;;;;;5008128;28;20213;-49
2022/02/23 05:53:40;;;;;;;6.57;2.53;;;24.40;48.30;;;;;;5007781;28;20201;-50
2022/02/23 05:56:11;;;;;;;6.00;2.58;;;24.40;48.90;;;;;;5008783;28;20193;-56
2022/02/23 05:58:42;;;;;;;6.57;2.00;;;24.40;48.20;;;;;;5012069;28;20263;-58
2022/02/23 06:01:15;;;;;;;9.32;2.70;;;24.40;48.30;;;;;;5011703;28;20216;-53
2022/02/23 06:03:45;;;;;;;7.22;2.33;;;24.40;48.30;;;;;;5010806;28;20656;-59
2022/02/23 06:06:16;;;;;;;4.97;1.98;;;24.40;48.40;;;;;;5000722;28;20795;-59
2022/02/23 06:08:48;;;;;;;6.50;2.50;;;24.50;48.50;;;;;;4993608;28;20256;-60
2022/02/23 06:11:19;;;;;;;7.80;2.67;;;24.50;48.50;;;;;;4992158;28;20214;-60
2022/02/23 06:13:51;;;;;;;6.10;2.15;;;24.50;48.50;;;;;;4992046;28;20205;-60
2022/02/23 06:16:22;;;;;;;5.30;1.98;;;24.50;48.50;;;;;;4991883;28;20601;-60
2022/02/23 06:18:54;;;;;;;7.18;2.40;;;24.50;48.50;;;;;;4992435;28;20198;-57
2022/02/23 06:21:25;;;;;;;5.43;2.03;;;24.50;48.50;;;;;;4991556;28;20218;-60
2022/02/23 06:23:58;;;;;;;7.30;2.40;;;24.50;48.50;;;;;;4993110;28;20249;-58
2022/02/23 06:26:28;;;;;;;7.22;2.45;;;24.50;48.50;;;;;;4993509;28;20202;-60
2022/02/23 06:28:59;;;;;;;4.82;2.20;;;24.50;48.50;;;;;;4992912;28;20256;-60
2022/02/23 06:31:29;;;;;;;7.07;2.47;;;24.50;48.50;;;;;;4992871;28;20628;-57
2022/02/23 06:34:00;;;;;;;5.38;2.20;;;24.50;48.50;;;;;;4993014;28;20264;-57
2022/02/23 06:36:31;;;;;;;6.85;2.40;;;24.50;48.50;;;;;;4992390;28;20272;-59
2022/02/23 06:39:03;;;;;;;7.50;2.42;;;24.50;48.50;;;;;;4993122;28;20193;-58
2022/02/23 06:41:35;;;;;;;6.22;2.33;;;24.50;48.50;;;;;;4992833;28;20221;-57
2022/02/23 06:44:06;;;;;;;5.78;2.20;;;24.50;48.50;;;;;;4992016;28;20201;-61
2022/02/23 06:46:38;;;;;;;5.95;2.42;;;24.50;48.50;;;;;;4992605;28;20206;-61
2022/02/23 06:49:08;;;;;;;6.72;2.63;;;24.50;48.50;;;;;;4992903;28;20197;-55
2022/02/23 06:51:39;;;;;;;6.10;2.22;;;24.50;48.60;;;;;;4992548;28;20221;-61
2022/02/23 06:54:11;;;;;;;5.88;1.92;;;24.50;48.70;;;;;;4992849;28;20248;-61
2022/02/23 06:56:42;;;;;;;6.90;2.58;;;24.40;48.60;;;;;;4992651;28;20614;-58
2022/02/23 06:59:12;;;;;;;4.60;1.95;;;24.40;48.70;;;;;;4992709;28;20201;-61
2022/02/23 07:01:45;;;;;;;5.03;2.13;;;24.40;48.80;;;;;;4992497;28;20276;-61
2022/02/23 07:04:16;;;;;;;3.55;1.58;;;24.40;48.80;;;;;;4992561;28;20198;-61
2022/02/23 07:06:47;;;;;;;5.68;2.00;;;24.40;48.80;;;;;;4991752;28;20190;-61
2022/02/23 07:09:19;;;;;;;4.93;2.10;;;24.40;48.90;;;;;;4993011;28;20252;-62
2022/02/23 07:11:50;;;;;;;4.88;2.10;;;24.40;48.90;;;;;;4992566;28;20221;-59
2022/02/23 07:14:21;;;;;;;3.33;1.60;;;24.40;48.80;;;;;;4993028;28;20209;-61
2022/02/23 07:16:52;;;;;;;4.70;1.80;;;24.30;48.80;;;;;;4992109;28;20209;-58
2022/02/23 07:19:24;;;;;;;4.43;2.10;;;24.40;48.80;;;;;;4992255;28;20205;-61
2022/02/23 07:21:55;;;;;;;4.35;1.85;;;24.30;48.80;;;;;;4991846;28;20227;-62
2022/02/23 07:24:27;;;;;;;5.25;1.85;;;24.30;48.80;;;;;;4992249;28;20205;-61
2022/02/23 07:26:58;;;;;;;4.22;1.80;;;24.30;48.70;;;;;;4992258;28;20845;-59
2022/02/23 07:29:28;;;;;;;4.85;1.88;;;24.20;48.80;;;;;;4991781;28;20189;-55
2022/02/23 07:31:59;;;;;;;4.13;1.63;;;24.30;48.90;;;;;;4991584;28;20575;-58
2022/02/23 07:34:30;;;;;;;6.53;2.03;;;24.20;48.80;;;;;;4991975;28;20197;-61
2022/02/23 07:37:00;;;;;;;4.30;1.83;;;24.20;48.90;;;;;;4991611;28;20233;-59
2022/02/23 07:39:33;;;;;;;4.75;1.50;;;24.20;48.90;;;;;;4992392;28;20325;-58
2022/02/23 07:42:03;;;;;;;4.97;1.88;;;24.20;49.60;;;;;;4992215;28;20217;-61
2022/02/23 07:44:34;;;;;;;5.07;1.98;;;24.20;49.00;;;;;;4992143;28;20205;-61
2022/02/23 07:47:05;;;;;;;4.05;1.48;;;24.20;49.00;;;;;;4991899;28;20198;-62
2022/02/23 07:49:36;;;;;;;5.50;2.08;;;24.10;48.90;;;;;;4991656;28;20292;-58
2022/02/23 07:52:07;;;;;;;4.30;1.48;;;24.10;48.90;;;;;;4990976;28;20221;-62
2022/02/23 07:54:39;;;;;;;3.58;1.50;;;24.10;49.00;;;;;;4991463;28;20624;-62
2022/02/23 07:57:10;;;;;;;5.53;1.65;;;24.00;48.90;;;;;;4991513;28;20198;-61
2022/02/23 07:59:41;;;;;;;4.32;1.85;;;24.00;48.90;;;;;;4991103;28;20645;-62
2022/02/23 08:02:12;;;;;;;5.47;2.03;;;24.00;48.90;;;;;;4990928;28;20198;-61
2022/02/23 08:04:42;;;;;;;4.03;1.52;;;24.00;48.90;;;;;;4990190;28;20205;-59
2022/02/23 08:07:13;;;;;;;6.93;2.00;;;24.00;49.00;;;;;;4990801;28;20238;-61
2022/02/23 08:09:45;;;;;;;4.65;1.60;;;24.00;49.00;;;;;;4989523;28;20189;-49
2022/02/23 08:12:16;;;;;;;4.28;2.00;;;24.00;49.00;;;;;;4991766;28;20201;-55
2022/02/23 08:14:47;;;;;;;3.13;1.50;;;23.90;48.90;;;;;;4991720;28;20701;-59
2022/02/23 08:20:05;;;;;;;5.72;1.92;;;23.90;49.00;;;;;;4990582;28;20303;-51
2022/02/23 08:22:35;;;;;;;6.38;2.15;;;23.80;49.00;;;;;;4990082;28;20201;-55
2022/02/23 08:25:08;;;;;;;4.75;1.60;;;23.80;49.10;;;;;;4990993;28;20248;-60
2022/02/23 08:27:39;;;;;;;6.45;1.80;;;23.80;49.20;;;;;;4991058;28;20245;-61
2022/02/23 08:30:11;;;;;;;7.03;1.90;;;23.80;49.20;;;;;;4990698;28;20218;-59
2022/02/23 08:32:42;;;;;;;5.10;1.60;;;23.80;49.20;;;;;;4988782;28;20223;-62
2022/02/23 08:35:13;;;;;;;3.90;1.60;;;23.80;49.30;;;;;;4990547;28;20205;-45
2022/02/23 08:37:43;;;;;;;4.90;1.80;;;23.70;49.30;;;;;;4990224;28;20221;-60
2022/02/23 08:40:16;;;;;;;4.00;1.70;;;23.70;49.20;;;;;;4990552;28;20284;-59
2022/02/23 08:42:46;;;;;;;3.92;1.60;;;23.70;49.20;;;;;;4990958;28;20200;-50
2022/02/23 08:45:17;;;;;;;3.85;1.73;;;23.70;49.30;;;;;;4994801;28;20243;-47
2022/02/23 08:47:47;;;;;;;3.55;1.80;;;23.70;49.30;;;;;;5008406;28;20204;-50
2022/02/23 08:50:18;;;;;;;4.50;2.08;;;23.70;49.30;;;;;;5008465;28;20213;-50
2022/02/23 08:52:49;;;;;;;3.80;1.70;;;23.70;49.40;;;;;;5006971;28;20244;-49
2022/02/23 08:55:21;;;;;;;4.88;1.98;;;23.70;49.40;;;;;;5009062;28;20614;-49
2022/02/23 08:57:52;;;;;;;5.63;2.00;;;23.60;49.40;;;;;;5007760;28;20217;-46
2022/02/23 09:00:23;;;;;;;5.40;1.85;;;23.60;49.40;;;;;;5008641;28;20263;-48
2022/02/23 09:02:53;;;;;;;5.53;2.05;;;23.60;49.40;;;;;;5008304;28;20719;-52
2022/02/23 09:05:24;;;;;;;4.88;1.83;;;23.60;49.40;;;;;;5007940;28;20189;-46
2022/02/23 09:07:54;;;;;;;4.85;2.05;;;23.50;49.40;;;;;;5008331;28;20251;-47
2022/02/23 09:10:27;;;;;;;2.97;1.40;;;23.50;49.40;;;;;;5007949;28;20212;-45
2022/02/23 09:12:58;;;;;;;4.13;1.70;;;23.50;49.50;;;;;;5008830;28;20287;-47
2022/02/23 09:15:28;;;;;;;4.22;1.63;;;23.50;49.50;;;;;;5006547;28;20243;-47
2022/02/23 09:17:59;;;;;;;5.22;1.70;;;23.50;49.50;;;;;;5008523;28;20314;-51
2022/02/23 09:20:31;;;;;;;4.20;1.75;;;23.50;49.50;;;;;;5008369;28;20279;-49
2022/02/23 09:23:01;;;;;;;4.53;1.80;;;23.40;49.50;;;;;;5008547;28;20193;-47
2022/02/23 09:25:34;;;;;;;3.03;1.27;;;23.40;49.50;;;;;;5007846;28;20205;-44
2022/02/23 09:28:05;;;;;;;4.05;1.73;;;23.40;49.50;;;;;;5008217;28;20251;-45
2022/02/23 09:30:36;;;;;;;4.40;2.03;;;23.40;49.50;;;;;;5010288;28;20212;-46
2022/02/23 09:33:06;;;;;;;4.45;1.60;;;23.40;49.50;;;;;;5011831;28;20201;-49
2022/02/23 09:35:37;;;;;;;4.10;1.75;;;23.40;49.50;;;;;;5012994;28;20204;-47
2022/02/23 09:38:07;;;;;;;4.72;1.42;;;23.30;49.50;;;;;;5011331;28;20221;-45
2022/02/23 09:40:41;;;;;;;4.45;1.55;;;23.30;49.60;;;;;;5012144;28;20208;-46
2022/02/23 09:43:12;;;;;;;2.92;1.35;;;23.30;49.50;;;;;;5012143;28;20197;-51
2022/02/23 09:45:45;;;;;;;2.38;1.30;;;23.30;49.50;;;;;;5011482;28;20258;-45
2022/02/23 09:48:15;;;;;;;3.63;1.45;;;23.30;49.50;;;;;;5011414;28;20201;-47
2022/02/23 09:50:46;;;;;;;3.60;1.75;;;23.30;49.70;;;;;;5011286;28;20314;-56
2022/02/23 09:53:18;;;;;;;3.75;1.50;;;23.20;49.50;;;;;;5011505;28;20204;-62
2022/02/23 09:55:52;;;;;;;2.50;1.75;;;23.30;49.60;;;;;;5011835;28;20722;-50
2022/02/23 09:58:22;;;;;;;3.72;1.58;;;23.20;49.50;;;;;;5012478;28;20708;-56
2022/02/23 10:00:54;;;;;;;3.75;1.58;;;23.20;49.60;;;;;;5011618;28;20225;-57
2022/02/23 10:03:24;;;;;;;3.53;1.50;;;23.20;49.60;;;;;;5011718;28;20642;-56
2022/02/23 10:05:55;;;;;;;3.78;1.48;;;23.20;49.70;;;;;;5010799;28;20276;-45
2022/02/23 10:08:37;;;;;;;3.42;1.58;;;23.20;49.70;;;;;;5011468;28;20205;-45
2022/02/23 10:11:20;;;;;;;2.80;1.58;;;23.20;49.70;;;;;;5011916;28;20657;-46
2022/02/23 10:13:54;;;;;;;1.88;1.30;;;23.10;49.70;;;;;;5010813;28;20212;-55
2022/02/23 10:16:29;;;;;;;3.33;1.65;;;23.10;49.70;;;;;;5010257;28;20195;-45
2022/02/23 10:19:10;;;;;;;3.22;1.50;;;23.10;50.30;;;;;;5011394;28;20223;-45
2022/02/23 10:21:49;;;;;;;2.35;1.27;;;23.10;49.70;;;;;;5011434;28;20681;-54
2022/02/23 10:24:29;;;;;;;3.42;1.40;;;23.10;49.70;;;;;;5010792;28;20215;-45
2022/02/23 10:27:03;;;;;;;2.20;1.30;;;23.10;49.70;;;;;;5011498;28;20239;-55
2022/02/23 10:29:36;;;;;;;3.20;1.45;;;23.10;49.80;;;;;;5011204;28;20254;-48
2022/02/23 10:32:12;;;;;;;3.03;1.30;;;23.00;49.70;;;;;;5010977;28;20685;-52
2022/02/23 10:34:46;;;;;;;3.17;1.33;;;23.00;49.70;;;;;;5011440;28;20200;-46
2022/02/23 10:37:18;;;;;;;3.80;1.50;;;23.00;49.70;;;;;;5010664;28;20624;-50
2022/02/23 10:39:50;;;;;;;2.95;1.45;;;23.00;49.70;;;;;;5006779;28;20267;-45
2022/02/23 10:42:26;;;;;;;2.92;1.70;;;23.00;49.80;;;;;;5010922;28;20243;-49
2022/02/23 10:44:57;;;;;;;4.32;1.77;;;23.00;49.90;;;;;;5010997;28;20209;-52
2022/02/23 10:47:32;;;;;;;2.35;1.15;;;22.90;49.80;;;;;;5011000;28;20197;-46
2022/02/23 10:50:05;;;;;;;3.13;1.67;;;22.90;49.80;;;;;;5010070;28;20287;-45
2022/02/23 10:52:36;;;;;;;2.65;1.60;;;22.90;49.80;;;;;;5010295;28;20201;-45
2022/02/23 10:55:21;;;;;;;2.88;1.40;;;22.90;49.80;;;;;;5011082;28;20204;-45
2022/02/23 10:57:56;;;;;;;6.50;1.85;;;22.90;49.90;;;;;;5010593;28;20189;-51
2022/02/23 11:00:28;;;;;;;3.70;1.48;;;22.90;49.90;;;;;;5010678;28;20300;-47
2022/02/23 11:02:59;;;;;;;2.35;1.23;;;22.90;49.90;;;;;;5010663;28;20267;-50
2022/02/23 11:05:31;;;;;;;4.65;1.48;;;22.90;49.90;;;;;;5010959;28;20725;-54
2022/02/23 11:08:11;;;;;;;4.15;1.65;;;22.90;50.00;;;;;;5010835;28;20193;-46
2022/02/23 11:10:44;;;;;;;3.33;1.23;;;22.80;50.00;;;;;;5010393;28;20224;-52
2022/02/23 11:13:17;;;;;;;3.40;1.42;;;22.80;49.90;;;;;;5021967;23;20225;-55
2022/02/23 11:15:49;;;;;;;4.28;1.50;;;22.80;49.90;;;;;;5009725;28;20203;-52
2022/02/23 11:18:23;;;;;;;3.63;1.25;;;22.80;49.90;;;;;;5008774;28;20243;-55
2022/02/23 11:20:54;;;;;;;3.35;1.33;;;22.80;50.00;;;;;;5010132;28;20593;-56
2022/02/23 11:23:26;;;;;;;1.67;1.15;;;22.80;49.90;;;;;;5009865;28;20607;-56
2022/02/23 11:25:59;;;;;;;4.15;1.30;;;22.80;50.00;;;;;;5010152;28;20205;-49
2022/02/23 11:28:33;;;;;;;2.47;1.35;;;22.80;50.00;;;;;;5006562;28;20209;-58
2022/02/23 11:31:06;;;;;;;3.70;1.50;;;22.80;50.00;;;;;;4993410;28;20253;-58
2022/02/23 11:33:59;;;;;;;3.92;1.35;;;22.80;50.00;;;;;;4993405;28;20194;-59
2022/02/23 11:36:32;;;;;;;2.00;1.27;;;22.70;50.00;;;;;;4992083;28;20337;-59
2022/02/23 11:39:05;;;;;;;2.22;1.30;;;22.70;50.00;;;;;;4991903;28;20217;-59
2022/02/23 11:41:37;;;;;;;2.60;1.10;;;22.70;50.00;;;;;;4991941;28;20272;-59
2022/02/23 11:44:17;;;;;;;1.80;1.20;;;22.70;50.00;;;;;;4991618;28;20202;-58
2022/02/23 11:50:30;;;;;;;3.40;1.33;;;22.70;50.10;;;;;;4991570;28;20680;-55
2022/02/23 11:56:15;;;;;;;2.35;1.30;;;22.60;50.00;;;;;;4991367;28;20209;-56
2022/02/23 11:58:51;;;;;;;1.88;1.00;;;22.60;50.10;;;;;;4990880;28;20685;-58
2022/02/23 12:01:24;;;;;;;2.05;1.15;;;22.60;50.10;;;;;;4991424;28;20692;-59
2022/02/23 12:04:12;;;;;;;2.40;1.17;;;22.60;50.20;;;;;;4991731;28;20574;-58
2022/02/23 12:07:11;;;;;;;1.75;1.00;;;22.60;50.20;;;;;;4991670;28;20566;-58
2022/02/23 12:10:09;;;;;;;2.55;1.27;;;22.60;50.20;;;;;;4991650;28;20292;-57
2022/02/23 12:12:40;;;;;;;3.00;1.40;;;22.50;50.10;;;;;;5001143;23;20189;-56
2022/02/23 12:15:12;;;;;;;1.67;1.13;;;22.50;50.10;;;;;;4952143;29;20199;-49
2022/02/23 12:18:01;;;;;;;2.97;1.10;;;22.50;50.10;;;;;;4952619;29;20199;-60
2022/02/23 12:21:01;;;;;;;3.20;1.40;;;22.50;50.20;;;;;;4958958;28;20233;-54
2022/02/23 12:23:42;;;;;;;1.92;1.00;;;22.50;50.20;;;;;;4892927;29;20205;-48
2022/02/23 12:26:30;;;;;;;2.22;1.10;;;22.50;50.20;;;;;;4962436;28;20210;-50
2022/02/23 12:29:02;;;;;;;2.22;1.17;;;22.50;50.20;;;;;;4970981;28;20261;-51
2022/02/23 12:31:34;;;;;;;2.35;1.13;;;22.40;50.20;;;;;;4958920;28;20211;-53
2022/02/23 12:34:09;;;;;;;1.63;1.00;;;22.40;50.20;;;;;;4952217;29;20274;-55
2022/02/23 12:36:42;;;;;;;2.03;1.17;;;22.40;50.20;;;;;;4952596;29;20198;-51
2022/02/23 12:39:16;;;;;;;2.95;1.08;;;22.40;50.20;;;;;;4952167;29;20222;-56
2022/02/23 12:41:50;;;;;;;1.83;1.10;;;22.40;50.20;;;;;;4952133;29;20754;-59
2022/02/23 12:44:23;;;;;;;3.65;1.10;;;22.40;50.30;;;;;;4957134;28;20639;-46
2022/02/23 12:46:55;;;;;;;2.38;1.30;;;22.40;50.30;;;;;;4971121;28;20281;-54
2022/02/23 12:49:28;;;;;;;2.22;1.15;;;22.40;50.30;;;;;;4971585;28;20244;-53
2022/02/23 12:52:00;;;;;;;1.35;0.95;;;22.40;50.30;;;;;;4971476;28;20273;-50
2022/02/23 12:54:32;;;;;;;2.50;1.20;;;22.40;50.30;;;;;;4971257;28;20685;-54
2022/02/23 12:57:03;;;;;;;1.85;1.20;;;22.40;50.30;;;;;;4971543;28;20253;-53
2022/02/23 12:59:35;;;;;;;2.20;1.08;;;22.30;50.30;;;;;;4969655;28;20226;-50
2022/02/23 13:02:08;;;;;;;2.97;1.10;;;22.30;50.30;;;;;;4969231;28;20218;-55
2022/02/23 13:04:42;;;;;;;1.65;0.90;;;22.30;50.30;;;;;;4970676;28;20233;-54
2022/02/23 13:07:15;;;;;;;3.95;1.00;;;22.30;50.30;;;;;;4957376;28;20199;-55
2022/02/23 13:09:47;;;;;;;2.28;1.10;;;22.30;50.90;;;;;;4957697;28;20650;-57
2022/02/23 13:14:59;;;;;;;2.58;1.13;;;22.30;50.40;;;;;;4988605;28;20228;-56
2022/02/23 13:17:30;;;;;;;2.33;1.15;;;22.30;50.30;;;;;;4990643;28;20328;-58
2022/02/23 13:20:06;;;;;;;1.73;1.17;;;22.30;50.30;;;;;;4990414;28;20236;-56
2022/02/23 13:22:36;;;;;;;2.83;1.10;;;22.20;50.30;;;;;;4990792;28;20677;-59